createdAt,value
2023-11-04T00:00:01.211Z,91816.39
2023-11-04T00:00:46.446Z,91815.88
2023-11-04T00:01:58.156Z,91819.29
2023-11-04T00:02:32.288Z,91818.20
2023-11-04T00:03:06.214Z,91817.20
2023-11-04T00:03:41.186Z,91818.60
2023-11-04T00:04:15.321Z,91818.44
2023-11-04T00:04:50.473Z,91819.31
2023-11-04T00:05:40.082Z,91819.48
2023-11-04T00:06:15.469Z,91818.23
2023-11-04T00:06:50.424Z,91823.88
2023-11-04T00:07:27.725Z,91824.59
2023-11-04T00:08:01.460Z,91821.83
2023-11-04T00:08:35.228Z,91827.59
2023-11-04T00:09:28.539Z,91828.73
2023-11-04T00:10:09.874Z,91829.13
2023-11-04T00:10:44.404Z,91829.39
2023-11-04T00:11:19.616Z,91831.42
2023-11-04T00:11:53.584Z,91832.83
2023-11-04T00:13:05.660Z,91831.39
2023-11-04T00:13:39.978Z,91831.73
2023-11-04T00:14:15.635Z,91832.83
2023-11-04T00:14:49.149Z,91831.33
2023-11-04T00:15:25.133Z,91830.47
2023-11-04T00:15:59.753Z,91834.95
2023-11-04T00:16:49.002Z,91836.60
2023-11-04T00:17:22.700Z,91830.95
2023-11-04T00:17:56.419Z,91831.80
2023-11-04T00:18:32.888Z,91834.66
2023-11-04T00:19:07.565Z,91835.55
2023-11-04T00:19:41.384Z,91836.35
2023-11-04T00:20:36.601Z,91832.43
2023-11-04T00:21:17.668Z,91834.70
2023-11-04T00:21:51.897Z,91836.05
2023-11-04T00:22:25.941Z,91835.69
2023-11-04T00:22:59.765Z,91834.71
2023-11-04T00:24:12.919Z,91834.46
2023-11-04T00:24:49.259Z,91837.38
2023-11-04T00:25:23.011Z,91838.13
2023-11-04T00:25:57.000Z,91834.79
2023-11-04T00:26:30.846Z,91836.46
2023-11-04T00:27:06.510Z,91835.95
2023-11-04T00:27:49.880Z,91834.18
2023-11-04T00:28:23.418Z,91833.14
2023-11-04T00:28:56.911Z,91832.88
2023-11-04T00:29:31.177Z,91837.27
2023-11-04T00:30:05.923Z,91834.05
2023-11-04T00:30:39.837Z,91832.90
2023-11-04T00:31:31.087Z,91836.59
2023-11-04T00:32:05.195Z,91836.20
2023-11-04T00:32:39.107Z,91836.36
2023-11-04T00:33:13.494Z,91839.43
2023-11-04T00:33:47.537Z,91841.96
2023-11-04T00:34:21.115Z,91839.02
2023-11-04T00:35:12.396Z,91840.70
2023-11-04T00:35:46.409Z,91837.95
2023-11-04T00:36:20.388Z,91842.63
2023-11-04T00:36:54.148Z,91841.36
2023-11-04T00:37:28.486Z,91840.80
2023-11-04T00:38:02.534Z,91837.58
2023-11-04T00:38:53.547Z,91837.35
2023-11-04T00:39:27.338Z,91840.59
2023-11-04T00:40:07.753Z,91839.91
2023-11-04T00:40:43.630Z,91842.63
2023-11-04T00:41:21.477Z,91838.91
2023-11-04T00:41:55.531Z,91837.54
2023-11-04T00:42:39.383Z,91831.83
2023-11-04T00:43:13.785Z,91844.37
2023-11-04T00:43:48.118Z,91845.44
2023-11-04T00:44:22.291Z,91846.16
2023-11-04T00:44:56.988Z,91845.73
2023-11-04T00:45:30.623Z,91847.38
2023-11-04T00:46:18.463Z,91848.35
2023-11-04T00:46:52.697Z,91850.41
2023-11-04T00:47:26.469Z,91848.59
2023-11-04T00:48:01.189Z,91848.95
2023-11-04T00:48:36.816Z,91848.86
2023-11-04T00:49:11.831Z,91850.18
2023-11-04T00:50:01.884Z,91853.25
2023-11-04T00:50:38.806Z,91855.49
2023-11-04T00:51:13.225Z,91850.92
2023-11-04T00:51:47.840Z,91851.75
2023-11-04T00:52:25.083Z,91856.25
2023-11-04T00:53:34.401Z,91855.34
2023-11-04T00:54:09.069Z,91853.54
2023-11-04T00:54:43.189Z,91857.30
2023-11-04T00:55:18.881Z,91856.55
2023-11-04T00:55:53.193Z,91857.38
2023-11-04T00:56:26.965Z,91854.81
2023-11-04T00:57:16.455Z,91856.47
2023-11-04T00:57:50.648Z,91855.18
2023-11-04T00:58:24.527Z,91856.03
2023-11-04T00:58:58.630Z,91850.36
2023-11-04T00:59:32.419Z,91854.40
2023-11-04T01:00:10.729Z,91852.49
2023-11-04T01:00:57.916Z,91855.30
2023-11-04T01:01:31.552Z,91857.05
2023-11-04T01:02:05.420Z,91854.71
2023-11-04T01:02:38.973Z,91852.26
2023-11-04T01:03:12.834Z,91855.74
2023-11-04T01:03:46.976Z,91858.60
2023-11-04T01:04:38.620Z,91855.49
2023-11-04T01:05:12.707Z,91857.25
2023-11-04T01:05:49.065Z,91856.60
2023-11-04T01:06:23.180Z,91861.85
2023-11-04T01:06:57.492Z,91853.71
2023-11-04T01:07:32.075Z,91862.05
2023-11-04T01:08:19.815Z,91861.30
2023-11-04T01:08:53.569Z,91860.54
2023-11-04T01:09:27.449Z,91864.81
2023-11-04T01:10:01.406Z,91864.55
2023-11-04T01:10:35.767Z,91865.06
2023-11-04T01:11:09.878Z,91867.76
2023-11-04T01:12:00.899Z,91871.54
2023-11-04T01:12:34.788Z,91867.27
2023-11-04T01:13:09.359Z,91874.52
2023-11-04T01:13:43.593Z,91877.61
2023-11-04T01:14:20.646Z,91874.10
2023-11-04T01:14:54.986Z,91874.63
2023-11-04T01:15:42.153Z,91872.17
2023-11-04T01:16:16.589Z,91876.23
2023-11-04T01:16:52.946Z,91875.45
2023-11-04T01:17:26.819Z,91873.89
2023-11-04T01:18:02.272Z,91877.92
2023-11-04T01:18:35.979Z,91878.21
2023-11-04T01:19:24.108Z,91874.05
2023-11-04T01:19:57.902Z,91876.61
2023-11-04T01:20:31.721Z,91873.73
2023-11-04T01:21:07.607Z,91876.51
2023-11-04T01:21:41.528Z,91872.86
2023-11-04T01:22:16.882Z,91875.61
2023-11-04T01:23:05.448Z,91873.67
2023-11-04T01:23:39.358Z,91873.84
2023-11-04T01:24:13.054Z,91875.30
2023-11-04T01:24:47.532Z,91875.46
2023-11-04T01:25:21.324Z,91877.45
2023-11-04T01:25:55.434Z,91870.89
2023-11-04T01:26:46.556Z,91876.55
2023-11-04T01:27:20.758Z,91873.11
2023-11-04T01:27:55.219Z,91876.38
2023-11-04T01:28:29.171Z,91873.19
2023-11-04T01:29:02.944Z,91871.95
2023-11-04T01:29:37.213Z,91874.02
2023-11-04T01:30:28.085Z,91871.88
2023-11-04T01:31:03.126Z,91868.22
2023-11-04T01:31:36.836Z,91869.05
2023-11-04T01:32:12.632Z,91871.65
2023-11-04T01:32:47.271Z,91870.01
2023-11-04T01:33:21.382Z,91866.83
2023-11-04T01:34:12.483Z,91868.08
2023-11-04T01:34:46.869Z,91868.61
2023-11-04T01:35:20.843Z,91867.04
2023-11-04T01:35:54.800Z,91863.79
2023-11-04T01:36:28.835Z,91864.38
2023-11-04T01:37:03.270Z,91860.25
2023-11-04T01:37:49.985Z,91859.73
2023-11-04T01:38:23.704Z,91862.41
2023-11-04T01:39:00.329Z,91861.61
2023-11-04T01:39:35.231Z,91861.22
2023-11-04T01:40:12.939Z,91865.02
2023-11-04T01:40:53.427Z,91859.44
2023-11-04T01:41:36.510Z,91861.31
2023-11-04T01:42:10.473Z,91859.96
2023-11-04T01:42:48.239Z,91861.27
2023-11-04T01:43:40.883Z,91857.96
2023-11-04T01:44:15.044Z,91855.77
2023-11-04T01:44:48.922Z,91859.70
2023-11-04T01:45:35.922Z,91854.86
2023-11-04T01:46:10.766Z,91853.64
2023-11-04T01:46:45.255Z,91856.10
2023-11-04T01:47:19.257Z,91855.04
2023-11-04T01:47:54.288Z,91857.98
2023-11-04T01:48:29.550Z,91859.44
2023-11-04T01:49:18.625Z,91857.40
2023-11-04T01:49:52.757Z,91858.85
2023-11-04T01:50:26.800Z,91854.48
2023-11-04T01:51:00.636Z,91860.13
2023-11-04T01:51:34.373Z,91856.55
2023-11-04T01:52:08.618Z,91850.05
2023-11-04T01:52:55.837Z,91853.70
2023-11-04T01:53:30.253Z,91852.25
2023-11-04T01:54:05.413Z,91848.25
2023-11-04T01:54:39.826Z,91847.42
2023-11-04T01:55:15.235Z,91841.61
2023-11-04T01:55:49.296Z,91849.67
2023-11-04T01:56:40.845Z,91843.42
2023-11-04T01:57:15.068Z,91843.27
2023-11-04T01:57:50.389Z,91842.75
2023-11-04T01:58:24.422Z,91838.11
2023-11-04T01:58:59.611Z,91843.24
2023-11-04T01:59:34.455Z,91842.90
2023-11-04T02:00:21.992Z,91845.42
2023-11-04T02:00:57.255Z,91846.45
2023-11-04T02:01:32.563Z,91843.67
2023-11-04T02:02:08.925Z,91842.68
2023-11-04T02:02:45.321Z,91848.89
2023-11-04T02:03:19.799Z,91845.55
2023-11-04T02:04:04.733Z,91847.92
2023-11-04T02:04:39.109Z,91842.04
2023-11-04T02:05:13.953Z,91849.45
2023-11-04T02:05:48.000Z,91853.23
2023-11-04T02:06:22.453Z,91852.27
2023-11-04T02:06:56.627Z,91848.81
2023-11-04T02:07:41.821Z,91849.62
2023-11-04T02:08:16.424Z,91855.56
2023-11-04T02:08:50.554Z,91854.83
2023-11-04T02:09:26.689Z,91856.90
2023-11-04T02:10:01.168Z,91855.19
2023-11-04T02:10:35.903Z,91854.58
2023-11-04T02:11:23.917Z,91852.84
2023-11-04T02:11:57.933Z,91854.69
2023-11-04T02:12:32.748Z,91850.35
2023-11-04T02:13:07.292Z,91850.70
2023-11-04T02:13:42.263Z,91846.19
2023-11-04T02:14:15.836Z,91849.32
2023-11-04T02:15:05.832Z,91849.10
2023-11-04T02:15:39.943Z,91848.75
2023-11-04T02:16:14.115Z,91849.27
2023-11-04T02:16:49.662Z,91848.29
2023-11-04T02:17:24.976Z,91849.41
2023-11-04T02:17:58.932Z,91847.59
2023-11-04T02:18:51.484Z,91842.89
2023-11-04T02:19:26.054Z,91844.84
2023-11-04T02:20:06.224Z,91841.97
2023-11-04T02:20:43.752Z,91843.87
2023-11-04T02:21:18.353Z,91844.44
2023-11-04T02:22:47.256Z,91837.36
2023-11-04T02:23:21.095Z,91839.76
2023-11-04T02:23:54.947Z,91845.16
2023-11-04T02:24:28.952Z,91845.94
2023-11-04T02:25:03.158Z,91847.46
2023-11-04T02:26:07.002Z,91851.05
2023-11-04T02:26:42.289Z,91853.92
2023-11-04T02:27:16.487Z,91850.17
2023-11-04T02:27:51.013Z,91850.70
2023-11-04T02:28:25.436Z,91848.57
2023-11-04T02:29:00.738Z,91850.07
2023-11-04T02:29:50.305Z,91851.23
2023-11-04T02:30:24.707Z,91846.06
2023-11-04T02:30:59.913Z,91850.60
2023-11-04T02:31:35.433Z,91849.41
2023-11-04T02:32:09.266Z,91848.98
2023-11-04T02:33:22.800Z,91848.20
2023-11-04T02:33:58.498Z,91847.12
2023-11-04T02:34:34.620Z,91849.62
2023-11-04T02:35:08.619Z,91849.56
2023-11-04T02:35:42.404Z,91851.49
2023-11-04T02:36:16.116Z,91854.30
2023-11-04T02:37:08.664Z,91850.61
2023-11-04T02:37:44.862Z,91854.15
2023-11-04T02:38:19.946Z,91851.38
2023-11-04T02:38:57.310Z,91859.14
2023-11-04T02:39:31.288Z,91856.69
2023-11-04T02:40:06.941Z,91855.69
2023-11-04T02:40:50.158Z,91856.43
2023-11-04T02:41:24.769Z,91855.80
2023-11-04T02:41:58.569Z,91857.10
2023-11-04T02:42:32.268Z,91855.80
2023-11-04T02:43:05.929Z,91856.59
2023-11-04T02:43:40.130Z,91854.73
2023-11-04T02:44:28.527Z,91853.63
2023-11-04T02:45:02.233Z,91854.05
2023-11-04T02:45:36.607Z,91853.23
2023-11-04T02:46:11.223Z,91855.17
2023-11-04T02:46:45.266Z,91856.69
2023-11-04T02:47:19.061Z,91857.30
2023-11-04T02:48:09.476Z,91857.77
2023-11-04T02:48:43.936Z,91857.59
2023-11-04T02:49:17.786Z,91859.34
2023-11-04T02:49:52.612Z,91860.97
2023-11-04T02:50:27.267Z,91859.87
2023-11-04T02:51:05.265Z,91858.05
2023-11-04T02:52:03.621Z,91855.81
2023-11-04T02:52:43.516Z,91861.65
2023-11-04T02:53:17.580Z,91858.41
2023-11-04T02:53:52.495Z,91860.14
2023-11-04T02:54:26.809Z,91856.85
2023-11-04T02:55:29.236Z,91861.48
2023-11-04T02:56:04.074Z,91865.23
2023-11-04T02:56:38.299Z,91862.38
2023-11-04T02:57:13.529Z,91862.32
2023-11-04T02:57:49.119Z,91866.59
2023-11-04T02:58:22.776Z,91866.52
2023-11-04T02:59:08.831Z,91864.77
2023-11-04T02:59:42.987Z,91863.20
2023-11-04T03:03:32.105Z,91857.62
2023-11-04T03:04:09.846Z,91859.92
2023-11-04T03:04:44.344Z,91856.33
2023-11-04T03:05:27.555Z,91857.92
2023-11-04T03:06:07.251Z,91855.69
2023-11-04T03:07:18.940Z,91852.55
2023-11-04T03:07:53.305Z,91853.45
2023-11-04T03:08:30.863Z,91854.41
2023-11-04T03:09:05.205Z,91854.77
2023-11-04T03:09:40.256Z,91853.10
2023-11-04T03:10:14.313Z,91855.27
2023-11-04T03:10:56.296Z,91852.74
2023-11-04T03:11:30.614Z,91861.12
2023-11-04T03:12:05.158Z,91856.44
2023-11-04T03:12:39.303Z,91861.95
2023-11-04T03:13:18.358Z,91858.61
2023-11-04T03:13:52.998Z,91859.45
2023-11-04T03:14:44.330Z,91863.02
2023-11-04T03:15:18.289Z,91862.21
2023-11-04T03:15:52.433Z,91863.09
2023-11-04T03:16:25.971Z,91862.21
2023-11-04T03:17:02.807Z,91861.77
2023-11-04T03:18:16.254Z,91856.98
2023-11-04T03:18:50.481Z,91860.07
2023-11-04T03:19:25.113Z,91858.61
2023-11-04T03:19:59.295Z,91858.14
2023-11-04T03:20:38.345Z,91859.80
2023-11-04T03:21:15.426Z,91860.21
2023-11-04T03:22:00.148Z,91860.58
2023-11-04T03:22:34.414Z,91860.08
2023-11-04T03:23:08.542Z,91860.96
2023-11-04T03:23:43.421Z,91858.86
2023-11-04T03:24:18.051Z,91860.25
2023-11-04T03:24:52.266Z,91860.31
2023-11-04T03:25:39.353Z,91856.93
2023-11-04T03:26:14.648Z,91860.19
2023-11-04T03:26:50.152Z,91858.98
2023-11-04T03:27:25.365Z,91855.80
2023-11-04T03:27:59.834Z,91856.58
2023-11-04T03:28:34.993Z,91859.17
2023-11-04T03:29:21.932Z,91855.94
2023-11-04T03:29:56.468Z,91854.51
2023-11-04T03:30:32.314Z,91852.89
2023-11-04T03:31:06.464Z,91853.20
2023-11-04T03:31:40.200Z,91849.96
2023-11-04T03:32:14.064Z,91851.08
2023-11-04T03:33:00.189Z,91852.64
2023-11-04T03:33:36.512Z,91850.51
2023-11-04T03:34:10.919Z,91850.19
2023-11-04T03:34:47.396Z,91851.75
2023-11-04T03:35:23.625Z,91846.79
2023-11-04T03:35:57.613Z,91855.34
2023-11-04T03:36:46.914Z,91855.06
2023-11-04T03:37:21.231Z,91862.00
2023-11-04T03:37:55.392Z,91860.43
2023-11-04T03:38:29.674Z,91861.13
2023-11-04T03:39:03.398Z,91861.08
2023-11-04T03:39:38.053Z,91862.63
2023-11-04T03:40:25.005Z,91862.77
2023-11-04T03:41:01.759Z,91866.65
2023-11-04T03:41:37.691Z,91867.27
2023-11-04T03:42:12.376Z,91869.30
2023-11-04T03:42:46.760Z,91863.77
2023-11-04T03:43:27.596Z,91868.34
2023-11-04T03:44:19.471Z,91865.42
2023-11-04T03:44:53.303Z,91865.02
2023-11-04T03:45:28.823Z,91866.84
2023-11-04T03:46:04.534Z,91869.52
2023-11-04T03:46:39.107Z,91865.59
2023-11-04T03:47:12.949Z,91865.75
2023-11-04T03:47:56.819Z,91866.85
2023-11-04T03:48:31.073Z,91868.98
2023-11-04T03:49:06.649Z,91867.63
2023-11-04T03:49:40.762Z,91870.18
2023-11-04T03:50:15.388Z,91869.87
2023-11-04T03:50:48.884Z,91865.13
2023-11-04T03:51:35.861Z,91868.98
2023-11-04T03:52:11.807Z,91873.88
2023-11-04T03:52:45.715Z,91872.05
2023-11-04T03:53:19.252Z,91873.21
2023-11-04T03:53:56.104Z,91872.21
2023-11-04T03:54:32.981Z,91875.38
2023-11-04T03:55:20.616Z,91868.98
2023-11-04T03:55:55.150Z,91873.10
2023-11-04T03:56:29.533Z,91873.45
2023-11-04T03:57:11.821Z,91873.30
2023-11-04T03:57:45.976Z,91875.29
2023-11-04T03:58:24.094Z,91873.92
2023-11-04T03:59:12.649Z,91873.61
2023-11-04T03:59:46.317Z,91852.79
2023-11-04T04:00:21.096Z,91867.85
2023-11-04T04:00:55.046Z,91875.33
2023-11-04T04:01:29.477Z,91865.75
2023-11-04T04:02:04.898Z,91875.85
2023-11-04T04:02:47.137Z,91875.44
2023-11-04T04:03:21.037Z,91876.59
2023-11-04T04:03:55.349Z,91876.54
2023-11-04T04:04:31.854Z,91863.05
2023-11-04T04:05:07.025Z,91874.70
2023-11-04T04:05:41.789Z,91874.48
2023-11-04T04:06:32.043Z,91874.45
2023-11-04T04:07:06.738Z,91865.75
2023-11-04T04:07:41.257Z,91871.69
2023-11-04T04:08:19.846Z,91869.98
2023-11-04T04:08:54.102Z,91866.64
2023-11-04T04:10:08.639Z,91868.15
2023-11-04T04:10:42.960Z,91862.95
2023-11-04T04:11:22.064Z,91868.63
2023-11-04T04:11:58.892Z,91868.11
2023-11-04T04:12:32.908Z,91869.51
2023-11-04T04:13:42.464Z,91868.05
2023-11-04T04:14:16.419Z,91858.36
2023-11-04T04:14:50.233Z,91870.39
2023-11-04T04:15:24.121Z,91870.34
2023-11-04T04:15:59.231Z,91857.02
2023-11-04T04:16:33.369Z,91870.95
2023-11-04T04:17:23.513Z,91865.39
2023-11-04T04:17:57.733Z,91866.17
2023-11-04T04:18:31.521Z,91856.54
2023-11-04T04:19:06.635Z,91862.32
2023-11-04T04:19:43.566Z,91863.09
2023-11-04T04:20:23.761Z,91862.56
2023-11-04T04:21:08.133Z,91863.98
2023-11-04T04:21:45.118Z,91858.82
2023-11-04T04:22:21.172Z,91856.58
2023-11-04T04:22:55.474Z,91851.38
2023-11-04T04:23:29.598Z,91853.05
2023-11-04T04:24:03.117Z,91854.45
2023-11-04T04:24:44.896Z,91852.02
2023-11-04T04:25:19.595Z,91853.83
2023-11-04T04:25:59.065Z,91855.44
2023-11-04T04:26:34.197Z,91853.36
2023-11-04T04:27:08.241Z,91854.39
2023-11-04T04:27:42.746Z,91855.91
2023-11-04T04:28:29.710Z,91859.03
2023-11-04T04:29:04.829Z,91857.48
2023-11-04T04:29:39.379Z,91858.40
2023-11-04T04:30:13.660Z,91854.35
2023-11-04T04:30:47.501Z,91856.38
2023-11-04T04:31:21.485Z,91860.33
2023-11-04T04:32:08.569Z,91864.17
2023-11-04T04:32:43.424Z,91865.70
2023-11-04T04:33:18.855Z,91868.92
2023-11-04T04:33:52.880Z,91865.52
2023-11-04T04:34:26.749Z,91866.30
2023-11-04T04:35:01.772Z,91864.35
2023-11-04T04:35:49.528Z,91867.91
2023-11-04T04:36:25.507Z,91870.64
2023-11-04T04:37:00.283Z,91870.21
2023-11-04T04:37:42.946Z,91872.20
2023-11-04T04:38:16.707Z,91872.92
2023-11-04T04:38:52.335Z,91869.97
2023-11-04T04:39:41.546Z,91866.37
2023-11-04T04:40:15.666Z,91868.44
2023-11-04T04:40:49.681Z,91863.81
2023-11-04T04:41:25.504Z,91865.23
2023-11-04T04:42:01.660Z,91860.77
2023-11-04T04:42:38.428Z,91863.17
2023-11-04T04:43:21.697Z,91855.63
2023-11-04T04:43:57.984Z,91857.55
2023-11-04T04:44:34.894Z,91863.44
2023-11-04T04:45:09.725Z,91857.40
2023-11-04T04:45:46.609Z,91860.52
2023-11-04T04:46:20.417Z,91857.08
2023-11-04T04:47:03.777Z,91864.42
2023-11-04T04:47:41.596Z,91863.84
2023-11-04T04:48:17.795Z,91861.10
2023-11-04T04:48:54.406Z,91863.75
2023-11-04T04:49:32.216Z,91864.73
2023-11-04T04:50:06.673Z,91865.29
2023-11-04T05:01:22.794Z,91862.67
2023-11-04T05:01:58.797Z,91860.36
2023-11-04T05:02:38.410Z,91863.53
2023-11-04T05:03:15.845Z,91864.87
2023-11-04T05:04:03.386Z,91864.77
2023-11-04T05:04:37.352Z,91867.20
2023-11-04T05:05:14.410Z,91867.23
2023-11-04T05:05:48.418Z,91869.94
2023-11-04T05:06:23.461Z,91869.92
2023-11-04T05:06:59.598Z,91869.86
2023-11-04T05:07:48.894Z,91867.14
2023-11-04T05:08:36.419Z,91855.80
2023-11-04T05:09:12.651Z,91862.09
2023-11-04T05:09:46.501Z,91864.20
2023-11-04T05:10:20.543Z,91861.70
2023-11-04T05:11:34.406Z,91861.94
2023-11-04T05:12:08.432Z,91862.48
2023-11-04T05:12:42.719Z,91862.67
2023-11-04T05:13:16.649Z,91864.86
2023-11-04T05:13:51.468Z,91851.44
2023-11-04T05:14:25.455Z,91864.14
2023-11-04T05:15:11.401Z,91862.38
2023-11-04T05:15:47.692Z,91861.48
2023-11-04T05:16:23.185Z,91865.64
2023-11-04T05:16:56.894Z,91863.10
2023-11-04T05:17:31.673Z,91861.81
2023-11-04T05:18:06.006Z,91866.10
2023-11-04T05:18:55.257Z,91862.67
2023-11-04T05:19:30.644Z,91863.83
2023-11-04T05:20:08.515Z,91866.17
2023-11-04T05:20:43.259Z,91867.73
2023-11-04T05:21:19.960Z,91850.77
2023-11-04T05:21:54.184Z,91865.83
2023-11-04T05:22:36.931Z,91869.42
2023-11-04T05:23:12.369Z,91857.48
2023-11-04T05:23:47.510Z,91865.98
2023-11-04T05:24:22.235Z,91870.02
2023-11-04T05:24:56.727Z,91866.34
2023-11-04T05:25:38.281Z,91871.88
2023-11-04T05:26:23.551Z,91871.17
2023-11-04T05:26:58.090Z,91873.44
2023-11-04T05:27:35.429Z,91868.67
2023-11-04T05:28:09.728Z,91869.16
2023-11-04T05:28:43.678Z,91870.98
2023-11-04T05:29:17.781Z,91864.77
2023-11-04T05:30:03.088Z,91869.38
2023-11-04T05:30:37.640Z,91872.05
2023-11-04T05:31:12.678Z,91866.70
2023-11-04T05:31:48.167Z,91873.61
2023-11-04T05:32:24.962Z,91871.98
2023-11-04T05:33:00.803Z,91876.19
2023-11-04T05:33:50.788Z,91876.45
2023-11-04T05:34:24.503Z,91876.02
2023-11-04T05:34:58.447Z,91877.21
2023-11-04T05:35:33.174Z,91877.48
2023-11-04T05:36:12.713Z,91871.82
2023-11-04T05:36:53.246Z,91878.95
2023-11-04T05:37:36.931Z,91879.40
2023-11-04T05:38:11.441Z,91880.70
2023-11-04T05:38:47.323Z,91881.09
2023-11-04T05:39:21.115Z,91866.12
2023-11-04T05:39:55.109Z,91882.09
2023-11-04T05:40:30.281Z,91885.77
2023-11-04T05:41:16.119Z,91883.56
2023-11-04T05:41:50.277Z,91885.45
2023-11-04T05:42:26.668Z,91882.29
2023-11-04T05:43:01.022Z,91868.48
2023-11-04T05:43:37.105Z,91883.27
2023-11-04T05:44:11.075Z,91886.33
2023-11-04T05:44:59.775Z,91887.45
2023-11-04T05:45:48.458Z,91887.02
2023-11-04T05:46:22.258Z,91888.92
2023-11-04T05:46:58.822Z,91882.48
2023-11-04T05:47:35.931Z,91891.27
2023-11-04T05:48:45.258Z,91889.67
2023-11-04T05:49:19.347Z,91889.29
2023-11-04T05:49:54.336Z,91891.03
2023-11-04T05:50:29.100Z,91894.38
2023-11-04T05:51:02.948Z,91892.95
2023-11-04T05:51:37.997Z,91893.14
2023-11-04T05:52:27.942Z,91890.11
2023-11-04T05:53:01.708Z,91892.27
2023-11-04T05:53:35.789Z,91890.54
2023-11-04T05:54:14.755Z,91889.98
2023-11-04T05:54:49.392Z,91892.07
2023-11-04T05:55:24.702Z,91889.41
2023-11-04T05:56:08.910Z,91890.00
2023-11-04T05:56:43.156Z,91891.02
2023-11-04T05:57:17.210Z,91890.44
2023-11-04T05:57:51.555Z,91889.67
2023-11-04T05:58:25.480Z,91883.35
2023-11-04T05:58:59.969Z,91890.10
2023-11-04T05:59:54.505Z,91892.98
2023-11-04T06:00:32.170Z,91887.08
2023-11-04T06:01:08.245Z,91889.36
2023-11-04T06:01:43.344Z,91886.71
2023-11-04T06:02:17.370Z,91889.80
2023-11-04T06:03:31.272Z,91886.80
2023-11-04T06:04:11.008Z,91885.38
2023-11-04T06:04:46.525Z,91885.79
2023-11-04T06:05:20.619Z,91892.58
2023-11-04T06:05:54.623Z,91877.76
2023-11-04T06:07:06.167Z,91889.12
2023-11-04T06:07:40.841Z,91890.23
2023-11-04T06:08:17.759Z,91893.08
2023-11-04T06:08:52.432Z,91889.44
2023-11-04T06:09:29.757Z,91887.92
2023-11-04T06:10:12.333Z,91888.35
2023-11-04T06:11:00.877Z,91888.98
2023-11-04T06:11:40.385Z,91890.05
2023-11-04T06:12:16.505Z,91894.45
2023-11-04T06:12:50.359Z,91893.07
2023-11-04T06:13:27.419Z,91893.94
2023-11-04T06:14:36.399Z,91895.79
2023-11-04T06:15:13.060Z,91899.31
2023-11-04T06:15:46.729Z,91897.60
2023-11-04T06:16:20.409Z,91898.08
2023-11-04T06:16:54.100Z,91893.27
2023-11-04T06:17:29.172Z,91900.17
2023-11-04T06:18:14.325Z,91899.95
2023-11-04T06:18:48.379Z,91899.73
2023-11-04T06:19:22.729Z,91902.38
2023-11-04T06:19:58.746Z,91899.39
2023-11-04T06:20:32.748Z,91905.52
2023-11-04T06:21:09.512Z,91900.81
2023-11-04T06:22:00.164Z,91901.73
2023-11-04T06:22:34.491Z,91902.06
2023-11-04T06:23:10.938Z,91903.00
2023-11-04T06:23:45.531Z,91899.58
2023-11-04T06:24:22.143Z,91905.46
2023-11-04T06:25:46.113Z,91901.23
2023-11-04T06:26:24.223Z,91902.85
2023-11-04T06:26:59.756Z,91905.11
2023-11-04T06:27:33.749Z,91902.92
2023-11-04T06:28:11.224Z,91904.73
2023-11-04T06:29:11.968Z,91906.70
2023-11-04T06:29:45.458Z,91909.85
2023-11-04T06:30:19.020Z,91913.84
2023-11-04T06:30:54.538Z,91914.61
2023-11-04T06:31:31.526Z,91911.20
2023-11-04T06:32:11.726Z,91913.53
2023-11-04T06:33:04.967Z,91915.62
2023-11-04T06:33:40.268Z,91916.67
2023-11-04T06:34:14.231Z,91917.21
2023-11-04T06:34:48.180Z,91920.82
2023-11-04T06:35:25.060Z,91922.73
2023-11-04T06:36:35.552Z,91923.46
2023-11-04T06:37:12.202Z,91924.02
2023-11-04T06:37:45.987Z,91926.30
2023-11-04T06:38:20.923Z,91924.23
2023-11-04T06:38:54.996Z,91928.16
2023-11-04T06:39:34.444Z,91927.73
2023-11-04T06:40:18.291Z,91926.41
2023-11-04T06:40:57.665Z,91925.95
2023-11-04T06:41:45.207Z,91924.49
2023-11-04T06:42:28.381Z,91922.08
2023-11-04T06:43:04.449Z,91923.45
2023-11-04T06:43:40.472Z,91918.02
2023-11-04T06:44:26.153Z,91921.29
2023-11-04T06:45:02.515Z,91922.27
2023-11-04T06:45:36.769Z,91923.56
2023-11-04T06:46:10.909Z,91920.30
2023-11-04T06:46:50.522Z,91920.73
2023-11-04T06:47:26.048Z,91923.90
2023-11-04T06:48:13.353Z,91922.38
2023-11-04T06:48:50.003Z,91923.45
2023-11-04T06:49:24.899Z,91922.77
2023-11-04T06:50:01.660Z,91921.39
2023-11-04T06:50:37.749Z,91915.21
2023-11-04T06:51:46.322Z,91916.17
2023-11-04T06:52:27.825Z,91909.02
2023-11-04T06:53:03.186Z,91917.98
2023-11-04T06:53:40.617Z,91916.73
2023-11-04T06:54:14.681Z,91918.45
2023-11-04T06:55:25.811Z,91910.83
2023-11-04T06:56:02.011Z,91912.14
2023-11-04T06:56:39.656Z,91915.65
2023-11-04T06:57:16.948Z,91916.73
2023-11-04T06:57:54.390Z,91918.42
2023-11-04T06:59:04.038Z,91915.52
2023-11-04T06:59:42.077Z,91916.48
2023-11-04T07:00:16.961Z,91917.95
2023-11-04T07:00:52.090Z,91918.05
2023-11-04T07:01:28.016Z,91916.36
2023-11-04T07:02:57.608Z,91914.23
2023-11-04T07:03:35.105Z,91916.11
2023-11-04T07:04:12.173Z,91913.95
2023-11-04T07:04:48.248Z,91916.56
2023-11-04T07:05:24.474Z,91911.61
2023-11-04T07:06:17.103Z,91916.63
2023-11-04T07:06:52.599Z,91906.16
2023-11-04T07:07:26.943Z,91916.78
2023-11-04T07:08:06.565Z,91918.92
2023-11-04T07:08:44.354Z,91913.97
2023-11-04T07:09:19.643Z,91916.07
2023-11-04T07:10:02.157Z,91915.11
2023-11-04T07:10:38.978Z,91912.14
2023-11-04T07:11:16.428Z,91909.65
2023-11-04T07:11:50.540Z,91914.56
2023-11-04T07:12:25.138Z,91913.17
2023-11-04T07:12:59.206Z,91912.95
2023-11-04T07:13:45.051Z,91907.80
2023-11-04T07:14:21.258Z,91910.02
2023-11-04T07:14:57.744Z,91905.46
2023-11-04T07:15:36.522Z,91903.99
2023-11-04T07:16:11.452Z,91903.73
2023-11-04T07:16:49.947Z,91906.80
2023-11-04T07:17:34.532Z,91900.14
2023-11-04T07:18:09.811Z,91902.80
2023-11-04T07:18:47.741Z,91904.05
2023-11-04T07:19:28.124Z,91901.82
2023-11-04T07:20:02.186Z,91902.03
2023-11-04T07:21:15.469Z,91898.94
2023-11-04T07:21:53.592Z,91900.05
2023-11-04T07:22:27.768Z,91898.04
2023-11-04T07:23:05.110Z,91901.89
2023-11-04T07:23:40.135Z,91897.51
2023-11-04T07:24:48.985Z,91890.73
2023-11-04T07:25:23.990Z,91896.55
2023-11-04T07:25:58.464Z,91892.55
2023-11-04T07:26:36.775Z,91888.91
2023-11-04T07:27:14.509Z,91888.79
2023-11-04T07:27:54.261Z,91891.55
2023-11-04T07:28:42.599Z,91892.54
2023-11-04T07:29:20.057Z,91890.90
2023-11-04T07:29:54.243Z,91892.58
2023-11-04T07:30:28.042Z,91886.02
2023-11-04T07:31:01.919Z,91890.14
2023-11-04T07:31:36.891Z,91890.46
2023-11-04T07:32:18.673Z,91892.02
2023-11-04T07:33:04.802Z,91888.41
2023-11-04T07:33:42.120Z,91888.17
2023-11-04T07:34:18.832Z,91888.59
2023-11-04T07:34:53.910Z,91882.85
2023-11-04T07:36:05.308Z,91881.23
2023-11-04T07:36:39.571Z,91881.67
2023-11-04T07:37:15.687Z,91880.44
2023-11-04T07:37:52.107Z,91877.42
2023-11-04T07:38:26.988Z,91878.21
2023-11-04T07:39:03.951Z,91876.20
2023-11-04T07:39:46.033Z,91878.44
2023-11-04T07:40:19.957Z,91876.96
2023-11-04T07:40:53.901Z,91872.05
2023-11-04T07:41:31.061Z,91872.84
2023-11-04T07:42:04.862Z,91868.27
2023-11-04T07:42:39.085Z,91869.31
2023-11-04T07:43:28.566Z,91868.92
2023-11-04T07:44:02.802Z,91863.45
2023-11-04T07:44:39.929Z,91859.20
2023-11-04T07:45:14.407Z,91862.78